createdAt,value
2022-08-23T00:02:24.771Z,14.90
2022-08-23T00:05:07.932Z,14.80
2022-08-23T00:07:40.126Z,14.70
2022-08-23T00:10:09.088Z,14.60
2022-08-23T00:12:36.191Z,14.60
2022-08-23T00:15:03.617Z,14.60
2022-08-23T00:17:34.525Z,14.50
2022-08-23T00:20:09.138Z,14.40
2022-08-23T00:22:36.429Z,14.40
2022-08-23T00:25:04.516Z,14.40
2022-08-23T00:27:31.236Z,14.40
2022-08-23T00:29:58.309Z,14.30
2022-08-23T00:32:26.944Z,14.30
2022-08-23T00:34:53.773Z,14.30
2022-08-23T00:37:21.380Z,14.20
2022-08-23T00:39:48.134Z,14.20
2022-08-23T00:42:51.643Z,14.10
2022-08-23T00:45:39.094Z,14.00
2022-08-23T00:48:06.508Z,14.00
2022-08-23T00:50:36.796Z,13.90
2022-08-23T00:53:17.784Z,13.90
2022-08-23T00:55:45.824Z,13.80
2022-08-23T00:58:13.212Z,13.80
2022-08-23T01:00:39.997Z,13.70
2022-08-23T01:03:08.662Z,13.60
2022-08-23T01:05:46.587Z,13.60
2022-08-23T01:08:13.395Z,13.50
2022-08-23T01:10:43.356Z,13.40
2022-08-23T01:13:36.243Z,13.40
2022-08-23T01:16:07.761Z,13.40
2022-08-23T01:18:34.581Z,13.30
2022-08-23T01:21:01.201Z,13.30
2022-08-23T01:23:29.530Z,13.30
2022-08-23T01:25:56.384Z,13.30
2022-08-23T01:28:23.046Z,13.20
2022-08-23T01:30:49.970Z,13.10
2022-08-23T01:33:16.705Z,13.10
2022-08-23T01:35:44.586Z,13.10
2022-08-23T01:38:12.110Z,13.10
2022-08-23T01:40:39.122Z,13.00
2022-08-23T01:43:06.021Z,13.00
2022-08-23T01:45:33.580Z,13.00
2022-08-23T01:48:00.398Z,13.00
2022-08-23T01:50:28.012Z,13.00
2022-08-23T01:52:55.081Z,12.90
2022-08-23T01:55:21.880Z,12.90
2022-08-23T01:57:50.270Z,12.90
2022-08-23T02:00:18.073Z,12.80
2022-08-23T02:02:46.957Z,12.80
2022-08-23T02:05:14.270Z,12.70
2022-08-23T02:07:46.218Z,12.70
2022-08-23T02:10:12.860Z,12.70
2022-08-23T02:12:39.608Z,12.70
2022-08-23T02:15:06.650Z,12.60
2022-08-23T02:17:33.449Z,12.60
2022-08-23T02:20:02.187Z,12.60
2022-08-23T02:22:28.825Z,12.60
2022-08-23T02:24:55.487Z,12.50
2022-08-23T02:27:22.205Z,12.50
2022-08-23T02:29:50.299Z,12.50
2022-08-23T02:32:19.530Z,12.50
2022-08-23T02:34:51.029Z,12.40
2022-08-23T02:37:31.332Z,12.40
2022-08-23T02:39:58.114Z,12.40
2022-08-23T02:42:24.806Z,12.40
2022-08-23T02:44:51.491Z,12.30
2022-08-23T02:47:18.886Z,12.20
2022-08-23T02:49:46.124Z,12.20
2022-08-23T02:52:12.804Z,12.10
2022-08-23T02:54:39.526Z,12.10
2022-08-23T02:57:06.358Z,12.10
2022-08-23T02:59:33.054Z,12.10
2022-08-23T03:01:59.795Z,12.10
2022-08-23T03:04:26.569Z,12.00
2022-08-23T03:06:53.257Z,12.00
2022-08-23T03:09:19.931Z,12.00
2022-08-23T03:11:47.419Z,11.90
2022-08-23T03:14:14.352Z,12.00
2022-08-23T03:16:41.535Z,11.90
2022-08-23T03:19:08.454Z,11.90
2022-08-23T03:21:35.133Z,11.90
2022-08-23T03:24:03.215Z,11.90
2022-08-23T03:26:33.645Z,11.80
2022-08-23T03:29:00.636Z,11.90
2022-08-23T03:31:30.506Z,11.80
2022-08-23T03:33:58.188Z,11.80
2022-08-23T03:36:27.863Z,11.80
2022-08-23T03:38:55.468Z,11.80
2022-08-23T03:41:22.329Z,11.70
2022-08-23T03:43:49.023Z,11.80
2022-08-23T03:46:22.988Z,11.70
2022-08-23T03:48:53.840Z,11.80
2022-08-23T03:51:21.363Z,11.70
2022-08-23T03:53:49.575Z,11.90
2022-08-23T03:56:27.655Z,12.20
2022-08-23T03:58:55.417Z,12.40
2022-08-23T04:01:27.916Z,12.60
2022-08-23T04:03:59.243Z,12.70
2022-08-23T04:06:27.316Z,12.80
2022-08-23T04:08:54.730Z,12.90
2022-08-23T04:11:21.706Z,12.90
2022-08-23T04:13:48.516Z,12.80
2022-08-23T04:16:15.310Z,12.80
2022-08-23T04:18:42.054Z,12.80
2022-08-23T04:21:12.657Z,12.60
2022-08-23T04:23:39.790Z,12.50
2022-08-23T04:26:07.087Z,12.50
2022-08-23T04:28:36.690Z,12.50
2022-08-23T04:31:04.698Z,12.50
2022-08-23T04:33:32.911Z,12.50
2022-08-23T04:36:00.877Z,12.50
2022-08-23T04:38:27.686Z,12.60
2022-08-23T04:41:13.224Z,12.70
2022-08-23T04:43:40.314Z,12.90
2022-08-23T04:46:07.543Z,12.90
2022-08-23T04:48:34.239Z,13.10
2022-08-23T04:51:01.112Z,13.40
2022-08-23T04:53:30.341Z,14.10
2022-08-23T04:55:56.971Z,15.10
2022-08-23T04:58:23.703Z,16.30
2022-08-23T05:00:52.198Z,17.30
2022-08-23T05:03:18.882Z,18.20
2022-08-23T05:05:46.204Z,18.90
2022-08-23T05:08:12.898Z,19.90
2022-08-23T05:10:39.640Z,20.30
2022-08-23T05:13:06.319Z,20.80
2022-08-23T05:15:33.024Z,21.40
2022-08-23T05:17:59.803Z,22.20
2022-08-23T05:20:26.640Z,22.70
2022-08-23T05:22:53.936Z,23.30
2022-08-23T05:25:21.246Z,24.20
2022-08-23T05:27:48.002Z,25.00
2022-08-23T05:30:15.314Z,25.70
2022-08-23T05:32:42.268Z,25.90
2022-08-23T05:35:09.106Z,25.70
2022-08-23T05:37:35.787Z,25.70
2022-08-23T05:40:02.738Z,26.40
2022-08-23T05:42:29.470Z,27.20
2022-08-23T05:44:56.869Z,27.70
2022-08-23T05:47:27.012Z,27.90
2022-08-23T05:49:53.706Z,28.10
2022-08-23T05:52:20.588Z,28.60
2022-08-23T05:54:47.387Z,29.10
2022-08-23T05:57:14.056Z,29.70
2022-08-23T05:59:42.016Z,30.00
2022-08-23T06:02:09.332Z,30.40
2022-08-23T06:04:36.126Z,30.70
2022-08-23T06:07:02.858Z,31.00
2022-08-23T06:09:29.544Z,31.20
2022-08-23T06:11:56.247Z,31.10
2022-08-23T06:14:23.719Z,31.30
2022-08-23T06:16:55.521Z,31.00
2022-08-23T06:19:23.195Z,31.20
2022-08-23T06:21:51.140Z,31.10
2022-08-23T06:24:18.091Z,31.30
2022-08-23T06:26:45.347Z,31.20
2022-08-23T06:29:14.241Z,31.50
2022-08-23T06:31:45.277Z,32.00
2022-08-23T06:34:24.142Z,32.20
2022-08-23T06:36:52.874Z,32.40
2022-08-23T06:39:20.291Z,33.30
2022-08-23T06:41:49.947Z,32.90
2022-08-23T06:44:18.385Z,33.40
2022-08-23T06:46:45.631Z,33.60
2022-08-23T06:49:15.366Z,33.20
2022-08-23T06:51:46.840Z,33.70
2022-08-23T06:54:15.130Z,34.10
2022-08-23T06:56:42.778Z,33.80
2022-08-23T06:59:09.536Z,33.70
2022-08-23T07:01:47.382Z,33.60
2022-08-23T07:04:15.576Z,34.10
2022-08-23T07:06:42.292Z,33.80
2022-08-23T07:09:09.010Z,34.40
2022-08-23T07:11:35.798Z,35.00
2022-08-23T07:14:04.569Z,34.10
2022-08-23T07:16:38.907Z,34.20
2022-08-23T07:19:08.613Z,33.40
2022-08-23T07:21:35.577Z,33.50
2022-08-23T07:24:02.759Z,34.70
2022-08-23T07:26:29.448Z,35.20
2022-08-23T07:28:58.902Z,35.80
2022-08-23T07:31:28.394Z,35.40
2022-08-23T07:33:55.790Z,34.80
2022-08-23T07:36:28.806Z,35.20
2022-08-23T07:38:56.065Z,35.60
2022-08-23T07:41:24.322Z,35.30
2022-08-23T07:43:51.639Z,36.10
2022-08-23T07:46:18.406Z,36.10
2022-08-23T07:48:57.676Z,36.70
2022-08-23T07:51:24.706Z,37.50
2022-08-23T07:53:51.912Z,38.00
2022-08-23T07:56:20.108Z,37.60
2022-08-23T07:58:46.897Z,37.90
2022-08-23T08:01:15.662Z,38.40
2022-08-23T08:03:43.881Z,37.30
2022-08-23T08:06:15.861Z,37.20
2022-08-23T08:08:45.696Z,38.30
2022-08-23T08:11:13.717Z,38.80
2022-08-23T08:13:42.414Z,39.00
2022-08-23T08:16:09.707Z,38.10
2022-08-23T08:18:37.262Z,37.00
2022-08-23T08:21:04.467Z,36.70
2022-08-23T08:23:31.238Z,36.80
2022-08-23T08:26:05.747Z,36.20
2022-08-23T08:28:32.855Z,35.40
2022-08-23T08:30:59.634Z,35.80
2022-08-23T08:33:30.888Z,35.30
2022-08-23T08:35:59.963Z,34.80
2022-08-23T08:38:30.537Z,34.30
2022-08-23T08:41:03.441Z,34.70
2022-08-23T08:43:33.781Z,34.10
2022-08-23T08:46:23.322Z,34.40
2022-08-23T08:48:52.799Z,34.40
2022-08-23T08:51:31.860Z,34.70
2022-08-23T08:53:59.220Z,34.70
2022-08-23T08:56:32.300Z,35.20
2022-08-23T08:59:04.796Z,35.60
2022-08-23T09:01:32.737Z,35.40
2022-08-23T09:03:59.588Z,35.20
2022-08-23T09:06:41.584Z,34.90
2022-08-23T09:09:26.755Z,34.80
2022-08-23T09:12:12.070Z,36.00
2022-08-23T09:14:46.763Z,36.50
2022-08-23T09:17:13.400Z,37.50
2022-08-23T09:19:40.250Z,36.50
2022-08-23T09:22:13.335Z,36.00
2022-08-23T09:24:40.898Z,37.20
2022-08-23T09:27:11.194Z,37.80
2022-08-23T09:29:39.007Z,37.10
2022-08-23T09:32:08.088Z,37.40
2022-08-23T09:34:42.382Z,37.30
2022-08-23T09:37:23.042Z,37.70
2022-08-23T09:39:51.579Z,37.60
2022-08-23T09:42:27.573Z,36.50
2022-08-23T09:44:54.276Z,36.20
2022-08-23T09:47:30.260Z,35.30
2022-08-23T09:50:06.494Z,35.30
2022-08-23T09:52:35.354Z,35.20
2022-08-23T09:55:04.329Z,35.00
2022-08-23T09:57:32.032Z,35.80
2022-08-23T10:00:17.833Z,36.20
2022-08-23T10:02:44.599Z,35.30
2022-08-23T10:05:11.440Z,35.40
2022-08-23T10:07:52.849Z,35.10
2022-08-23T10:10:32.364Z,34.20
2022-08-23T10:12:59.448Z,33.70
2022-08-23T10:15:40.562Z,33.50
2022-08-23T10:18:10.295Z,34.00
2022-08-23T10:20:36.972Z,34.00
2022-08-23T10:23:04.711Z,34.10
2022-08-23T10:25:40.211Z,34.10
2022-08-23T10:28:25.432Z,33.80
2022-08-23T10:31:07.289Z,33.60
2022-08-23T10:33:39.925Z,33.40
2022-08-23T10:36:19.973Z,33.00
2022-08-23T10:38:46.659Z,32.90
2022-08-23T10:41:23.074Z,32.50
2022-08-23T10:43:50.402Z,31.90
2022-08-23T10:46:17.762Z,31.50
2022-08-23T10:48:51.482Z,31.50
2022-08-23T10:51:31.234Z,31.70
2022-08-23T10:54:00.494Z,31.60
2022-08-23T10:56:28.364Z,31.20
2022-08-23T10:59:14.482Z,31.10
2022-08-23T11:01:48.566Z,31.10
2022-08-23T11:04:15.262Z,31.30
2022-08-23T11:06:44.621Z,31.20
2022-08-23T11:09:11.277Z,31.10
2022-08-23T11:11:38.107Z,30.50
2022-08-23T11:14:06.144Z,30.30
2022-08-23T11:16:34.669Z,30.00
2022-08-23T11:19:01.369Z,30.10
2022-08-23T11:21:31.632Z,30.30
2022-08-23T11:23:58.462Z,30.40
2022-08-23T11:26:38.034Z,30.80
2022-08-23T11:29:07.800Z,30.50
2022-08-23T11:31:34.727Z,30.60
2022-08-23T11:34:06.715Z,30.70
2022-08-23T11:36:33.883Z,30.70
2022-08-23T11:39:02.881Z,31.00
2022-08-23T11:41:30.386Z,30.90
2022-08-23T11:43:57.030Z,30.60
2022-08-23T11:46:26.922Z,31.00
2022-08-23T11:49:12.172Z,30.50
2022-08-23T11:51:38.837Z,30.10
2022-08-23T11:54:24.073Z,30.00
2022-08-23T11:57:02.467Z,30.30
2022-08-23T11:59:34.889Z,30.00
2022-08-23T12:02:24.041Z,30.40
2022-08-23T12:04:53.231Z,30.70
2022-08-23T12:07:38.863Z,31.20
2022-08-23T12:10:05.859Z,31.30
2022-08-23T12:12:38.733Z,30.90
2022-08-23T12:15:08.526Z,31.10
2022-08-23T12:17:40.291Z,31.00
2022-08-23T12:20:16.084Z,31.30
2022-08-23T12:23:02.503Z,31.20
2022-08-23T12:25:31.428Z,31.10
2022-08-23T12:28:17.872Z,30.80
2022-08-23T12:30:55.165Z,30.90
2022-08-23T12:33:21.876Z,31.00
2022-08-23T12:35:55.923Z,31.40
2022-08-23T12:38:41.355Z,31.30
2022-08-23T12:41:20.306Z,31.40
2022-08-23T12:43:58.353Z,31.60
2022-08-23T12:46:33.253Z,31.00
2022-08-23T12:49:00.363Z,30.90
2022-08-23T12:51:27.094Z,31.00
2022-08-23T12:53:53.839Z,30.90
2022-08-23T12:56:22.785Z,30.40
2022-08-23T12:59:04.682Z,30.20
2022-08-23T13:01:33.842Z,30.40
2022-08-23T13:04:00.572Z,30.50
2022-08-23T13:06:31.392Z,30.40
2022-08-23T13:09:09.334Z,30.50
2022-08-23T13:11:38.093Z,30.40
2022-08-23T13:14:23.434Z,30.50
2022-08-23T13:16:51.657Z,30.80
2022-08-23T13:19:23.957Z,30.70
2022-08-23T13:22:10.842Z,30.60
2022-08-23T13:24:42.722Z,30.60
2022-08-23T13:27:12.333Z,30.40
2022-08-23T13:30:11.528Z,30.70
2022-08-23T13:32:38.232Z,30.70
2022-08-23T13:35:23.750Z,30.20
2022-08-23T13:37:51.385Z,30.40
2022-08-23T13:40:21.539Z,30.40
2022-08-23T13:42:53.475Z,30.30
2022-08-23T13:45:22.963Z,30.40
2022-08-23T13:47:51.090Z,30.40
2022-08-23T13:50:23.067Z,30.40
2022-08-23T13:53:13.913Z,30.20
2022-08-23T13:55:45.720Z,30.60
2022-08-23T13:58:18.318Z,30.30
2022-08-23T14:00:55.189Z,30.40
2022-08-23T14:03:22.984Z,30.50
2022-08-23T14:05:49.680Z,30.60
2022-08-23T14:08:16.421Z,30.80
2022-08-23T14:10:46.603Z,30.90
2022-08-23T14:13:14.661Z,30.70
2022-08-23T14:15:58.758Z,30.60
2022-08-23T14:18:28.972Z,30.60
2022-08-23T14:20:56.449Z,30.30
2022-08-23T14:23:23.156Z,30.30
2022-08-23T14:25:51.342Z,30.30
2022-08-23T14:28:18.877Z,30.00
2022-08-23T14:30:47.751Z,30.10
2022-08-23T14:33:14.468Z,29.90
2022-08-23T14:35:42.023Z,29.90
2022-08-23T14:38:08.677Z,30.10
2022-08-23T14:40:35.684Z,30.10
2022-08-23T14:43:04.815Z,30.20
2022-08-23T14:45:32.401Z,29.90
2022-08-23T14:47:59.211Z,30.00
2022-08-23T14:50:26.021Z,30.10
2022-08-23T14:52:55.819Z,29.90
2022-08-23T14:55:25.043Z,30.00
2022-08-23T14:57:52.049Z,29.90
2022-08-23T15:00:18.799Z,29.50
2022-08-23T15:02:46.808Z,29.30
2022-08-23T15:05:14.136Z,29.40
2022-08-23T15:07:40.864Z,29.20
2022-08-23T15:10:09.863Z,29.10
2022-08-23T15:15:23.626Z,29.30
2022-08-23T15:17:53.521Z,29.50
2022-08-23T15:20:21.730Z,29.50
2022-08-23T15:22:55.257Z,29.50
2022-08-23T15:25:23.727Z,29.60
2022-08-23T15:27:51.073Z,29.60
2022-08-23T15:30:17.887Z,29.50
2022-08-23T15:32:52.601Z,29.50
2022-08-23T15:35:24.313Z,29.40
2022-08-23T15:37:52.435Z,29.40
2022-08-23T15:40:19.354Z,29.50
2022-08-23T15:42:46.084Z,29.60
2022-08-23T15:45:12.876Z,29.40
2022-08-23T15:47:42.344Z,29.30
2022-08-23T15:50:09.356Z,29.30
2022-08-23T15:52:36.014Z,29.30
2022-08-23T15:55:03.902Z,29.30
2022-08-23T15:57:31.641Z,29.30
2022-08-23T15:59:59.014Z,29.20
2022-08-23T16:02:25.925Z,29.30
2022-08-23T16:04:52.661Z,29.30
2022-08-23T16:07:19.437Z,29.30
2022-08-23T16:09:47.133Z,29.30
2022-08-23T16:12:13.840Z,29.30
2022-08-23T16:14:40.542Z,29.20
2022-08-23T16:17:07.491Z,29.30
2022-08-23T16:19:34.374Z,29.30
2022-08-23T16:22:01.255Z,29.30
2022-08-23T16:24:27.932Z,29.10
2022-08-23T16:26:54.912Z,28.70
2022-08-23T16:29:22.088Z,28.70
2022-08-23T16:31:49.063Z,28.70
2022-08-23T16:34:16.970Z,28.60
2022-08-23T16:36:45.430Z,28.60
2022-08-23T16:39:13.716Z,28.60
2022-08-23T16:41:40.600Z,28.50
2022-08-23T16:44:07.712Z,28.50
2022-08-23T16:46:36.387Z,28.40
2022-08-23T16:49:03.159Z,28.40
2022-08-23T16:51:29.815Z,28.40
2022-08-23T16:54:02.494Z,28.40
2022-08-23T16:56:30.849Z,28.40
2022-08-23T16:58:57.790Z,28.40
2022-08-23T17:01:24.556Z,28.50
2022-08-23T17:03:51.419Z,28.50
2022-08-23T17:06:18.216Z,28.40
2022-08-23T17:08:45.218Z,28.30
2022-08-23T17:11:17.218Z,28.30
2022-08-23T17:13:44.242Z,28.10
2022-08-23T17:16:11.167Z,28.00
2022-08-23T17:18:38.486Z,28.00
2022-08-23T17:21:05.787Z,27.90
2022-08-23T17:23:32.753Z,27.80
2022-08-23T17:26:00.756Z,27.80
2022-08-23T17:28:28.108Z,27.70
2022-08-23T17:30:58.411Z,27.60
2022-08-23T17:33:25.045Z,27.40
2022-08-23T17:35:51.859Z,27.20
2022-08-23T17:38:20.067Z,27.10
2022-08-23T17:40:48.654Z,26.80
2022-08-23T17:43:15.380Z,26.60
2022-08-23T17:45:44.001Z,26.30
2022-08-23T17:48:11.351Z,26.00
2022-08-23T17:50:38.230Z,25.80
2022-08-23T17:53:05.469Z,25.50
2022-08-23T17:55:33.348Z,25.30
2022-08-23T17:58:03.760Z,25.10
2022-08-23T18:00:32.340Z,24.80
2022-08-23T18:02:59.001Z,24.60
2022-08-23T18:05:26.598Z,24.20
2022-08-23T18:07:53.286Z,24.10
2022-08-23T18:10:19.984Z,23.80
2022-08-23T18:12:46.672Z,23.60
2022-08-23T18:15:14.684Z,23.40
2022-08-23T18:17:41.551Z,23.10
2022-08-23T18:20:15.302Z,23.00
2022-08-23T18:22:42.048Z,22.80
2022-08-23T18:25:10.031Z,22.60
2022-08-23T18:27:55.121Z,22.40
2022-08-23T18:30:21.811Z,22.30
2022-08-23T18:32:48.579Z,22.10
2022-08-23T18:35:15.282Z,21.90
2022-08-23T18:37:42.054Z,21.70
2022-08-23T18:40:10.335Z,21.50
2022-08-23T18:42:37.616Z,21.40
2022-08-23T18:45:05.059Z,21.20
2022-08-23T18:47:31.784Z,21.10
2022-08-23T18:49:58.479Z,21.00
2022-08-23T18:52:27.164Z,20.90
2022-08-23T18:54:57.711Z,20.80
2022-08-23T18:57:24.370Z,20.60
2022-08-23T18:59:51.600Z,20.40
2022-08-23T19:02:18.476Z,20.30
2022-08-23T19:04:45.959Z,20.20
2022-08-23T19:07:12.865Z,20.10
2022-08-23T19:09:39.566Z,19.90
2022-08-23T19:12:06.630Z,19.80
2022-08-23T19:14:35.607Z,19.70
2022-08-23T19:17:03.701Z,19.50
2022-08-23T19:19:30.649Z,19.40
2022-08-23T19:21:58.374Z,19.40
2022-08-23T19:24:25.355Z,19.30
2022-08-23T19:26:52.573Z,19.20
2022-08-23T19:29:20.579Z,19.00
2022-08-23T19:31:48.388Z,19.10
2022-08-23T19:34:15.628Z,19.00
2022-08-23T19:36:46.935Z,18.60
2022-08-23T19:39:15.320Z,18.90
2022-08-23T19:41:42.048Z,18.80
2022-08-23T19:44:09.399Z,18.70
2022-08-23T19:46:41.047Z,18.60
2022-08-23T19:49:09.915Z,18.50
2022-08-23T19:51:36.742Z,18.50
2022-08-23T19:54:04.855Z,18.50
2022-08-23T19:56:37.929Z,18.40
2022-08-23T19:59:06.258Z,18.30
2022-08-23T20:01:33.019Z,18.30
2022-08-23T20:03:59.825Z,18.20
2022-08-23T20:06:26.802Z,18.20
2022-08-23T20:08:53.611Z,18.00
2022-08-23T20:11:20.450Z,18.00
2022-08-23T20:13:48.263Z,17.90
2022-08-23T20:16:15.742Z,17.80
2022-08-23T20:18:42.954Z,17.70
2022-08-23T20:21:10.188Z,17.70
2022-08-23T20:23:55.385Z,17.60
2022-08-23T20:26:22.015Z,17.60
2022-08-23T20:28:59.268Z,17.50
2022-08-23T20:31:28.627Z,17.50
2022-08-23T20:33:56.124Z,17.50
2022-08-23T20:36:22.873Z,17.40
2022-08-23T20:38:49.600Z,17.30
2022-08-23T20:41:16.890Z,17.30
2022-08-23T20:43:47.539Z,17.30
2022-08-23T20:46:14.288Z,17.20
2022-08-23T20:48:41.033Z,17.10
2022-08-23T20:51:07.952Z,17.10
2022-08-23T20:53:34.682Z,17.10
2022-08-23T20:56:01.966Z,17.00
2022-08-23T20:58:28.831Z,16.90
2022-08-23T21:00:55.811Z,16.90
2022-08-23T21:03:22.783Z,16.80
2022-08-23T21:05:50.189Z,16.80
2022-08-23T21:08:17.162Z,16.70
2022-08-23T21:10:44.941Z,16.70
2022-08-23T21:13:12.129Z,16.70
2022-08-23T21:15:38.913Z,16.60
2022-08-23T21:18:06.213Z,16.60
2022-08-23T21:20:32.945Z,16.50
2022-08-23T21:22:59.753Z,16.50
2022-08-23T21:25:26.459Z,16.40
2022-08-23T21:27:53.130Z,16.40
2022-08-23T21:30:19.868Z,16.30
2022-08-23T21:32:46.620Z,16.30
2022-08-23T21:35:13.859Z,16.20
2022-08-23T21:37:40.574Z,16.20
2022-08-23T21:40:08.109Z,16.10
2022-08-23T21:42:34.815Z,16.10
2022-08-23T21:45:01.521Z,16.10
2022-08-23T21:47:29.673Z,16.00
2022-08-23T21:49:56.340Z,16.00
2022-08-23T21:52:23.067Z,15.90
2022-08-23T21:54:49.736Z,15.90
2022-08-23T21:57:16.579Z,15.90
2022-08-23T21:59:43.549Z,15.80
2022-08-23T22:02:10.250Z,15.80
2022-08-23T22:04:37.866Z,15.70
2022-08-23T22:07:04.614Z,15.70
2022-08-23T22:09:31.712Z,15.70
2022-08-23T22:12:00.354Z,15.60
2022-08-23T22:14:31.387Z,15.60
2022-08-23T22:16:59.006Z,15.60
2022-08-23T22:19:25.863Z,15.50
2022-08-23T22:21:53.117Z,15.40
2022-08-23T22:24:25.255Z,15.40
2022-08-23T22:26:53.389Z,15.40
2022-08-23T22:29:20.047Z,15.30
2022-08-23T22:31:47.746Z,15.30
2022-08-23T22:34:16.898Z,15.30
2022-08-23T22:36:43.653Z,15.30
2022-08-23T22:39:12.905Z,15.30
2022-08-23T22:41:39.674Z,15.30
2022-08-23T22:44:06.837Z,15.20
2022-08-23T22:46:34.259Z,15.20
2022-08-23T22:49:01.585Z,15.20
2022-08-23T22:51:30.233Z,15.10
2022-08-23T22:53:58.748Z,15.10
2022-08-23T22:56:26.969Z,15.00
2022-08-23T22:58:53.956Z,15.00
2022-08-23T23:01:25.040Z,15.00
2022-08-23T23:03:52.402Z,15.00
2022-08-23T23:06:19.608Z,14.90
2022-08-23T23:08:46.326Z,14.90
2022-08-23T23:11:13.728Z,14.80
2022-08-23T23:13:40.454Z,14.90
2022-08-23T23:16:08.755Z,14.80
2022-08-23T23:18:35.913Z,14.80
2022-08-23T23:21:04.062Z,14.70
2022-08-23T23:23:31.973Z,14.80
2022-08-23T23:25:58.994Z,14.70
2022-08-23T23:28:26.191Z,14.70
2022-08-23T23:30:53.664Z,14.70
2022-08-23T23:33:21.030Z,14.60
2022-08-23T23:35:48.583Z,14.50
2022-08-23T23:38:15.491Z,14.50
2022-08-23T23:40:42.245Z,14.40
2022-08-23T23:43:09.169Z,14.40
2022-08-23T23:45:40.122Z,14.30
2022-08-23T23:48:08.695Z,14.30
2022-08-23T23:50:35.731Z,14.30
2022-08-23T23:53:02.530Z,14.30
2022-08-23T23:55:29.393Z,14.30
2022-08-23T23:57:56.193Z,14.30
